Time;durP1;ratioP1;P1;durP2;ratioP2;P2;SDS_P1;SDS_P2;PMS_P1;PMS_P2;Temp;Humidity;BMP_temperature;BMP_pressure;BME280_temperature;BME280_humidity;BME280_pressure;Samples;Min_cycle;Max_cycle;Signal;HPM_P1;HPM_P2
2021/09/26 00:00:59;;;;;;;30.42;25.52;;;17.20;99.90;;;;;;5039332;28;20068;-67
2021/09/26 00:03:25;;;;;;;39.15;29.00;;;17.20;99.90;;;;;;5035703;28;20119;-67
2021/09/26 00:05:50;;;;;;;36.03;27.10;;;17.20;99.90;;;;;;5038788;28;20040;-67
2021/09/26 00:08:16;;;;;;;37.20;28.45;;;17.20;99.90;;;;;;5023816;28;20037;-67
2021/09/26 00:10:41;;;;;;;32.22;26.42;;;17.20;99.90;;;;;;5004998;28;20075;-67
2021/09/26 00:13:07;;;;;;;35.58;27.13;;;17.20;99.90;;;;;;5022904;28;20041;-67
2021/09/26 00:15:33;;;;;;;38.65;28.25;;;17.20;99.90;;;;;;5019180;28;20049;-66
2021/09/26 00:17:59;;;;;;;37.65;28.50;;;17.20;99.90;;;;;;5038093;28;20037;-67
2021/09/26 00:20:25;;;;;;;40.72;27.65;;;17.20;99.90;;;;;;5021592;28;20040;-67
2021/09/26 00:22:51;;;;;;;33.60;26.67;;;17.20;99.90;;;;;;5021196;28;20044;-66
2021/09/26 00:25:18;;;;;;;35.45;26.98;;;17.20;99.90;;;;;;5004604;28;20032;-67
2021/09/26 00:27:44;;;;;;;34.45;28.17;;;17.20;99.90;;;;;;5038494;28;20037;-66
2021/09/26 00:30:14;;;;;;;35.20;28.58;;;17.20;99.90;;;;;;5023065;28;20067;-66
2021/09/26 00:32:44;;;;;;;36.08;26.92;;;17.20;99.90;;;;;;5034538;28;20072;-66
2021/09/26 00:35:10;;;;;;;37.22;26.88;;;17.20;99.90;;;;;;5020514;28;20052;-66
2021/09/26 00:37:36;;;;;;;34.90;28.30;;;17.20;99.90;;;;;;5038538;28;20032;-66
2021/09/26 00:40:02;;;;;;;32.15;26.75;;;17.20;99.90;;;;;;5037918;28;20055;-66
2021/09/26 00:42:28;;;;;;;41.35;28.65;;;17.20;99.90;;;;;;5018718;28;20037;-66
2021/09/26 00:44:54;;;;;;;41.40;28.73;;;17.20;99.90;;;;;;5019548;28;20050;-67
2021/09/26 00:47:19;;;;;;;34.47;26.73;;;17.20;99.90;;;;;;5021137;28;20045;-67
2021/09/26 00:49:45;;;;;;;36.35;28.15;;;17.20;99.90;;;;;;5038215;28;20048;-67
2021/09/26 00:52:11;;;;;;;32.00;27.25;;;17.20;99.90;;;;;;5023245;28;20049;-67
2021/09/26 00:54:38;;;;;;;32.70;27.75;;;17.20;99.90;;;;;;5017886;28;20041;-67
2021/09/26 00:57:05;;;;;;;35.22;27.15;;;17.10;99.90;;;;;;5021665;28;20116;-66
2021/09/26 00:59:30;;;;;;;33.72;26.50;;;17.10;99.90;;;;;;5039826;28;20033;-66
2021/09/26 01:01:56;;;;;;;35.25;26.85;;;17.10;99.90;;;;;;5038319;28;20041;-66
2021/09/26 01:04:22;;;;;;;36.50;28.48;;;17.10;99.90;;;;;;5036228;28;20660;-67
2021/09/26 01:07:09;;;;;;;38.38;28.88;;;17.10;99.90;;;;;;5038817;28;20037;-66
2021/09/26 01:09:46;;;;;;;32.80;27.20;;;17.00;99.90;;;;;;5020770;28;20055;-66
2021/09/26 01:12:50;;;;;;;32.40;26.38;;;17.00;99.90;;;;;;5021496;28;20044;-66
2021/09/26 01:15:45;;;;;;;31.20;25.95;;;16.90;99.90;;;;;;5020542;28;20049;-66
2021/09/26 01:18:39;;;;;;;32.58;25.80;;;16.90;99.90;;;;;;5022584;28;20167;-66
2021/09/26 01:21:47;;;;;;;32.70;26.13;;;16.90;99.90;;;;;;5037715;28;20339;-66
2021/09/26 01:24:51;;;;;;;34.67;25.60;;;16.90;99.90;;;;;;5034406;28;20072;-66
2021/09/26 01:27:45;;;;;;;34.30;25.73;;;16.80;99.90;;;;;;5021383;28;20077;-66
2021/09/26 01:30:15;;;;;;;40.72;28.35;;;16.70;99.90;;;;;;5037706;28;20176;-67
2021/09/26 01:32:44;;;;;;;41.00;30.05;;;16.70;99.90;;;;;;5018143;28;20053;-66
2021/09/26 01:35:12;;;;;;;32.03;25.25;;;16.70;99.90;;;;;;5035047;28;20033;-66
2021/09/26 01:37:42;;;;;;;39.35;26.48;;;16.60;99.90;;;;;;5020895;28;20055;-66
2021/09/26 01:40:21;;;;;;;31.25;25.52;;;16.60;99.90;;;;;;5037043;28;20399;-66
2021/09/26 01:42:54;;;;;;;33.25;25.42;;;16.50;99.90;;;;;;5034766;28;20044;-66
2021/09/26 01:45:28;;;;;;;30.95;24.83;;;16.40;99.90;;;;;;5020709;28;20060;-66
2021/09/26 01:48:11;;;;;;;30.13;25.08;;;16.40;99.90;;;;;;5024775;28;20137;-66
2021/09/26 01:50:39;;;;;;;32.63;25.23;;;16.30;99.90;;;;;;5025611;28;20053;-66
2021/09/26 01:53:06;;;;;;;26.77;22.00;;;16.30;99.90;;;;;;5024149;28;20051;-66
2021/09/26 01:55:33;;;;;;;23.27;19.83;;;16.20;99.90;;;;;;5042594;28;20052;-66
2021/09/26 01:58:01;;;;;;;27.85;19.90;;;16.10;99.90;;;;;;5043411;28;20565;-66
2021/09/26 02:00:27;;;;;;;33.50;23.42;;;16.00;99.90;;;;;;5041147;28;20076;-66
2021/09/26 02:02:55;;;;;;;25.50;22.23;;;16.00;99.90;;;;;;5021890;28;20156;-66
2021/09/26 02:05:21;;;;;;;32.08;25.75;;;16.00;99.90;;;;;;5040570;28;20044;-66
2021/09/26 02:07:48;;;;;;;30.67;23.70;;;16.00;99.90;;;;;;5041986;28;20029;-66
2021/09/26 02:10:18;;;;;;;33.28;26.55;;;15.90;99.90;;;;;;5044613;28;20471;-66
2021/09/26 02:12:44;;;;;;;32.35;25.27;;;15.90;99.90;;;;;;5022695;28;20072;-66
2021/09/26 02:15:14;;;;;;;27.70;24.38;;;15.80;99.90;;;;;;5024806;28;20123;-66
2021/09/26 02:17:44;;;;;;;40.30;28.48;;;15.80;99.90;;;;;;5024861;28;20060;-66
2021/09/26 02:20:11;;;;;;;25.85;22.48;;;15.70;99.90;;;;;;5024279;28;20098;-66
2021/09/26 02:22:38;;;;;;;25.20;19.42;;;15.60;99.90;;;;;;5023328;28;20072;-66
2021/09/26 02:25:07;;;;;;;22.83;20.35;;;15.60;99.90;;;;;;5026876;28;20044;-66
2021/09/26 02:27:34;;;;;;;40.35;20.85;;;15.50;99.90;;;;;;5029498;28;20099;-66
2021/09/26 02:30:00;;;;;;;30.10;24.38;;;15.40;99.90;;;;;;5044047;28;20107;-66
2021/09/26 02:32:26;;;;;;;28.33;23.33;;;15.30;99.90;;;;;;5031256;28;20049;-66
2021/09/26 02:34:52;;;;;;;26.60;22.77;;;15.20;99.90;;;;;;5043750;28;20954;-66
2021/09/26 02:37:17;;;;;;;32.17;25.50;;;15.30;99.90;;;;;;5026750;28;20099;-66
2021/09/26 02:39:44;;;;;;;36.65;28.48;;;15.20;99.90;;;;;;5027862;28;20033;-66
2021/09/26 02:42:24;;;;;;;33.78;27.98;;;15.20;99.90;;;;;;5046209;28;20049;-66
2021/09/26 02:45:01;;;;;;;32.92;25.08;;;15.20;99.90;;;;;;5044053;28;20099;-66
2021/09/26 02:47:30;;;;;;;29.40;24.33;;;15.10;99.90;;;;;;5029280;28;20073;-66
2021/09/26 02:49:57;;;;;;;33.22;27.23;;;15.00;99.90;;;;;;5045928;28;20087;-66
2021/09/26 02:52:23;;;;;;;28.85;24.25;;;14.90;99.90;;;;;;5029043;28;20041;-66
2021/09/26 02:54:50;;;;;;;44.55;33.17;;;14.90;99.90;;;;;;5041679;28;20175;-66
2021/09/26 02:57:16;;;;;;;44.17;30.10;;;14.90;99.90;;;;;;5027654;28;20045;-66
2021/09/26 02:59:43;;;;;;;69.10;41.30;;;14.90;99.90;;;;;;5045626;28;20128;-66
2021/09/26 03:02:08;;;;;;;44.42;32.45;;;14.90;99.90;;;;;;5028548;28;20072;-66
2021/09/26 03:04:46;;;;;;;54.25;34.05;;;14.90;99.90;;;;;;5023972;28;20171;-66
2021/09/26 03:07:13;;;;;;;41.92;30.80;;;14.90;99.90;;;;;;5027751;28;20037;-66
2021/09/26 03:09:39;;;;;;;57.05;39.30;;;14.90;99.90;;;;;;5047220;28;20491;-66
2021/09/26 03:12:15;;;;;;;58.15;40.88;;;14.90;99.90;;;;;;5045060;28;20543;-66
2021/09/26 03:14:41;;;;;;;78.60;45.63;;;14.90;99.90;;;;;;5041704;28;20040;-66
2021/09/26 03:17:07;;;;;;;57.42;40.30;;;15.00;99.90;;;;;;5025359;28;20048;-66
2021/09/26 03:19:34;;;;;;;54.55;40.75;;;15.00;99.90;;;;;;5044854;28;20071;-66
2021/09/26 03:22:01;;;;;;;74.10;46.42;;;15.10;99.90;;;;;;5026638;28;20163;-66
2021/09/26 03:24:27;;;;;;;50.63;38.55;;;15.10;99.90;;;;;;5037931;28;20053;-66
2021/09/26 03:26:54;;;;;;;64.43;43.10;;;15.20;99.90;;;;;;5044735;28;20051;-66
2021/09/26 03:29:19;;;;;;;63.75;42.33;;;15.20;99.90;;;;;;5027382;28;20041;-66
2021/09/26 03:31:45;;;;;;;47.15;34.90;;;15.20;99.90;;;;;;5025925;28;20063;-66
2021/09/26 03:34:11;;;;;;;65.57;42.35;;;15.10;99.90;;;;;;5044887;28;20041;-66
2021/09/26 03:36:37;;;;;;;65.40;43.05;;;15.10;99.90;;;;;;5027841;28;20040;-66
2021/09/26 03:39:03;;;;;;;75.35;44.67;;;15.10;99.90;;;;;;5030221;28;20045;-66
2021/09/26 03:41:28;;;;;;;54.38;40.45;;;15.10;99.90;;;;;;5027116;28;20037;-66
2021/09/26 03:43:54;;;;;;;55.28;37.90;;;15.10;99.90;;;;;;5042014;28;20061;-66
2021/09/26 03:46:20;;;;;;;57.78;40.38;;;15.00;99.90;;;;;;5025588;28;20048;-66
2021/09/26 03:48:45;;;;;;;58.70;37.45;;;15.00;99.90;;;;;;5046647;28;20687;-66
2021/09/26 03:51:11;;;;;;;48.47;34.55;;;14.90;99.90;;;;;;5028076;28;20068;-66
2021/09/26 03:53:36;;;;;;;64.97;34.88;;;14.90;99.90;;;;;;5025437;28;20044;-66
2021/09/26 03:56:02;;;;;;;47.90;31.55;;;14.80;99.90;;;;;;5029022;28;20045;-66
2021/09/26 03:58:28;;;;;;;53.70;38.05;;;14.80;99.90;;;;;;5031129;28;20049;-66
2021/09/26 04:00:54;;;;;;;48.35;35.17;;;14.70;99.90;;;;;;5046123;28;20168;-66
2021/09/26 04:03:19;;;;;;;39.28;30.70;;;14.70;99.90;;;;;;5041917;28;20042;-66
2021/09/26 04:05:45;;;;;;;51.08;33.28;;;14.70;99.90;;;;;;5028271;28;21657;-66
2021/09/26 04:08:10;;;;;;;66.25;42.88;;;14.60;99.90;;;;;;5045662;28;20079;-66
2021/09/26 04:10:36;;;;;;;72.80;45.00;;;14.70;99.90;;;;;;5043658;28;20033;-66
2021/09/26 04:13:02;;;;;;;83.38;51.90;;;14.70;99.90;;;;;;5024564;28;20040;-66
2021/09/26 04:15:28;;;;;;;78.03;49.88;;;14.90;99.90;;;;;;5029895;28;20124;-66
2021/09/26 04:17:53;;;;;;;83.85;49.03;;;14.90;99.90;;;;;;5033798;28;20032;-66
2021/09/26 04:20:19;;;;;;;71.03;44.65;;;15.00;99.90;;;;;;5025777;28;20068;-66
2021/09/26 04:22:45;;;;;;;50.80;37.83;;;15.00;99.90;;;;;;5043305;28;20040;-66
2021/09/26 04:25:10;;;;;;;68.53;45.03;;;14.90;99.90;;;;;;5028171;28;20095;-66
2021/09/26 04:27:36;;;;;;;50.58;38.38;;;14.80;99.90;;;;;;5029480;28;20041;-66
2021/09/26 04:30:04;;;;;;;73.65;46.08;;;14.90;99.90;;;;;;5044755;28;20130;-66
2021/09/26 04:32:29;;;;;;;76.22;46.05;;;14.90;99.90;;;;;;5024669;28;20049;-66
2021/09/26 04:34:55;;;;;;;78.93;48.30;;;14.90;99.90;;;;;;5025646;28;20044;-66
2021/09/26 04:37:20;;;;;;;56.55;40.45;;;15.00;99.90;;;;;;5026619;28;20067;-66
2021/09/26 04:39:47;;;;;;;47.08;37.55;;;14.90;99.90;;;;;;5042259;28;20041;-66
2021/09/26 04:42:12;;;;;;;86.20;50.35;;;14.90;99.90;;;;;;5044815;28;20402;-66
2021/09/26 04:44:38;;;;;;;74.03;43.38;;;14.80;99.90;;;;;;5041370;28;20048;-66
2021/09/26 04:47:04;;;;;;;70.65;46.40;;;14.90;99.90;;;;;;5025070;28;20250;-66
2021/09/26 04:49:29;;;;;;;70.53;45.30;;;14.90;99.90;;;;;;5025698;28;20045;-66
2021/09/26 04:51:57;;;;;;;78.25;47.60;;;14.80;99.90;;;;;;5025498;28;20107;-66
2021/09/26 04:54:23;;;;;;;77.88;48.38;;;14.90;99.90;;;;;;5021644;28;20045;-66
2021/09/26 04:56:48;;;;;;;69.53;44.88;;;14.90;99.90;;;;;;5025589;28;20036;-66
2021/09/26 04:59:15;;;;;;;72.25;46.28;;;14.90;99.90;;;;;;5043386;28;20124;-66
2021/09/26 05:01:41;;;;;;;60.10;41.13;;;14.90;99.90;;;;;;5023907;28;20079;-66
2021/09/26 05:04:06;;;;;;;62.55;40.70;;;14.90;99.90;;;;;;5040432;28;20123;-66
2021/09/26 05:06:32;;;;;;;56.00;39.92;;;14.80;99.90;;;;;;5042721;28;20069;-67
2021/09/26 05:08:57;;;;;;;57.75;39.67;;;14.80;99.90;;;;;;5025991;28;20478;-66
2021/09/26 05:11:23;;;;;;;45.58;35.17;;;14.70;99.90;;;;;;5024102;28;20384;-67
2021/09/26 05:13:48;;;;;;;57.47;40.08;;;14.80;99.90;;;;;;5039274;28;20384;-66
2021/09/26 05:16:14;;;;;;;50.65;37.28;;;14.70;99.90;;;;;;5022010;28;20053;-66
2021/09/26 05:18:40;;;;;;;46.15;34.67;;;14.70;99.90;;;;;;5035904;28;20036;-66
2021/09/26 05:21:06;;;;;;;49.72;35.28;;;14.70;99.90;;;;;;5036952;28;20045;-66
2021/09/26 05:23:32;;;;;;;43.50;32.03;;;14.60;99.90;;;;;;5021211;28;20045;-66
2021/09/26 05:25:57;;;;;;;50.55;36.83;;;14.60;99.90;;;;;;5042223;28;20562;-66
2021/09/26 05:28:23;;;;;;;44.33;33.55;;;14.60;99.90;;;;;;5042326;28;20045;-66
2021/09/26 05:30:50;;;;;;;44.88;33.53;;;14.60;99.90;;;;;;5023559;28;20041;-66
2021/09/26 05:33:15;;;;;;;50.53;35.83;;;14.60;99.90;;;;;;5023134;28;20053;-66
2021/09/26 05:35:41;;;;;;;47.85;35.22;;;14.60;99.90;;;;;;5025608;28;20044;-66
2021/09/26 05:38:06;;;;;;;40.60;32.35;;;14.60;99.90;;;;;;5042268;28;20091;-66
2021/09/26 05:40:32;;;;;;;43.10;32.60;;;14.60;99.90;;;;;;5027248;28;20057;-66
2021/09/26 05:42:58;;;;;;;43.22;33.13;;;14.60;99.90;;;;;;5024620;28;20051;-66
2021/09/26 05:45:23;;;;;;;42.42;31.38;;;14.60;99.90;;;;;;5024698;28;20041;-66
2021/09/26 05:47:49;;;;;;;51.85;34.45;;;14.60;99.90;;;;;;5021607;28;21059;-66
2021/09/26 05:50:15;;;;;;;40.03;30.77;;;14.60;99.90;;;;;;5038416;28;20048;-66
2021/09/26 05:52:41;;;;;;;41.17;30.25;;;14.60;99.90;;;;;;5016926;28;20084;-66
2021/09/26 05:55:07;;;;;;;45.42;31.38;;;14.60;99.90;;;;;;5035652;28;20048;-66
2021/09/26 05:57:33;;;;;;;40.17;31.17;;;14.60;99.90;;;;;;5022088;28;21715;-66
2021/09/26 06:00:02;;;;;;;42.03;32.00;;;14.60;99.90;;;;;;5026483;28;20136;-66
2021/09/26 06:02:28;;;;;;;34.88;27.98;;;14.60;99.90;;;;;;5043499;28;20103;-66
2021/09/26 06:04:54;;;;;;;34.22;28.63;;;14.70;99.90;;;;;;5024977;28;20053;-66
2021/09/26 06:07:20;;;;;;;32.90;27.20;;;14.90;99.90;;;;;;5046016;28;20060;-66
2021/09/26 06:09:47;;;;;;;25.52;22.42;;;15.10;99.90;;;;;;5024270;28;20048;-66
2021/09/26 06:12:13;;;;;;;25.45;22.77;;;15.30;99.90;;;;;;5039391;28;20037;-66
2021/09/26 06:14:40;;;;;;;22.50;20.30;;;15.60;99.90;;;;;;5019760;28;20056;-67
2021/09/26 06:17:06;;;;;;;21.45;19.25;;;15.80;99.90;;;;;;5035350;28;20041;-66
2021/09/26 06:19:33;;;;;;;18.50;16.80;;;16.50;99.90;;;;;;5021722;28;20033;-66
2021/09/26 06:21:59;;;;;;;18.85;16.77;;;17.20;99.90;;;;;;5030734;28;20527;-67
2021/09/26 06:24:24;;;;;;;18.25;16.05;;;17.80;99.90;;;;;;5029001;28;20053;-66
2021/09/26 06:26:50;;;;;;;17.77;15.35;;;18.50;99.90;;;;;;5024520;28;20489;-67
2021/09/26 06:29:16;;;;;;;15.88;14.35;;;19.10;99.90;;;;;;5039726;28;20028;-67
2021/09/26 06:31:41;;;;;;;15.70;14.13;;;19.70;99.90;;;;;;5041030;28;20086;-67
2021/09/26 06:34:07;;;;;;;15.48;13.98;;;20.30;99.90;;;;;;5037562;28;20049;-67
2021/09/26 06:36:33;;;;;;;15.38;13.93;;;20.80;99.90;;;;;;5022720;28;20041;-67
2021/09/26 06:38:59;;;;;;;16.00;14.52;;;21.00;99.90;;;;;;5025193;28;20123;-67
2021/09/26 06:41:25;;;;;;;16.08;14.68;;;20.80;99.90;;;;;;5022869;28;20174;-66
2021/09/26 06:43:52;;;;;;;15.32;13.82;;;20.40;99.90;;;;;;5021562;28;20479;-66
2021/09/26 06:46:18;;;;;;;15.35;13.85;;;20.00;99.90;;;;;;5024037;28;20052;-67
2021/09/26 06:48:44;;;;;;;15.98;14.48;;;19.70;99.90;;;;;;5021604;28;20580;-66
2021/09/26 06:51:11;;;;;;;16.00;14.23;;;19.40;99.90;;;;;;5024500;28;20044;-66
2021/09/26 06:53:37;;;;;;;15.48;13.98;;;19.00;99.90;;;;;;5022964;28;20045;-66
2021/09/26 06:56:03;;;;;;;16.67;13.50;;;18.80;99.90;;;;;;5021905;28;20087;-67
2021/09/26 06:58:29;;;;;;;14.77;13.40;;;18.80;99.90;;;;;;5021344;28;20036;-66
2021/09/26 07:00:54;;;;;;;15.52;13.93;;;18.70;99.90;;;;;;5036475;28;20044;-67
2021/09/26 07:03:20;;;;;;;14.48;12.98;;;18.70;99.90;;;;;;5035269;28;20378;-67
2021/09/26 07:05:46;;;;;;;15.48;13.93;;;18.60;99.90;;;;;;5016460;28;20054;-66
2021/09/26 07:08:12;;;;;;;14.85;13.45;;;18.50;99.90;;;;;;5038803;28;20045;-66
2021/09/26 07:10:37;;;;;;;17.73;14.50;;;18.20;99.90;;;;;;5036132;28;20099;-66
2021/09/26 07:13:03;;;;;;;15.00;13.52;;;18.10;99.90;;;;;;5035666;28;20037;-67
2021/09/26 07:15:29;;;;;;;15.75;14.20;;;18.00;99.90;;;;;;5038124;28;20128;-67
2021/09/26 07:17:57;;;;;;;16.83;13.63;;;18.00;99.90;;;;;;5020475;28;22227;-66
2021/09/26 07:20:24;;;;;;;15.65;14.15;;;18.00;99.90;;;;;;5036689;28;20055;-66
2021/09/26 07:22:50;;;;;;;18.95;14.07;;;18.00;99.90;;;;;;5018376;28;20156;-66
2021/09/26 07:25:15;;;;;;;17.30;14.40;;;17.80;99.90;;;;;;5022498;28;20040;-66
2021/09/26 07:27:41;;;;;;;14.95;13.35;;;17.70;99.90;;;;;;5024299;28;20055;-66
2021/09/26 07:30:07;;;;;;;14.88;13.35;;;17.70;99.90;;;;;;5036946;28;20051;-66
2021/09/26 07:32:33;;;;;;;16.45;14.57;;;17.70;99.90;;;;;;5039224;28;20056;-67
2021/09/26 07:34:59;;;;;;;15.70;13.88;;;17.70;99.90;;;;;;5019310;28;20040;-68
2021/09/26 07:37:24;;;;;;;15.93;13.90;;;17.60;99.90;;;;;;5022907;28;20069;-66
2021/09/26 07:39:50;;;;;;;13.88;12.55;;;17.60;99.90;;;;;;5023193;28;20044;-66
2021/09/26 07:42:16;;;;;;;17.10;13.77;;;17.60;99.90;;;;;;5021550;28;20540;-66
2021/09/26 07:44:41;;;;;;;16.17;14.68;;;17.60;99.90;;;;;;5001265;28;20071;-66
2021/09/26 07:47:07;;;;;;;18.13;13.85;;;17.60;99.90;;;;;;5038253;28;20399;-67
2021/09/26 07:49:34;;;;;;;16.55;14.00;;;17.60;99.90;;;;;;5038541;28;20072;-66
2021/09/26 07:52:00;;;;;;;14.18;12.75;;;17.60;99.90;;;;;;5022081;28;20052;-67
2021/09/26 07:54:26;;;;;;;15.50;13.90;;;17.60;99.90;;;;;;5037013;28;20390;-66
2021/09/26 07:56:52;;;;;;;15.82;13.32;;;17.60;99.90;;;;;;5020625;28;20040;-67
2021/09/26 07:59:19;;;;;;;15.02;13.57;;;17.60;99.90;;;;;;5022934;28;20545;-67
2021/09/26 08:01:45;;;;;;;14.23;12.77;;;17.60;99.90;;;;;;5020595;28;20041;-67
2021/09/26 08:04:11;;;;;;;18.02;14.45;;;17.60;99.90;;;;;;5017821;28;20056;-66
2021/09/26 08:06:36;;;;;;;15.57;13.98;;;17.60;99.90;;;;;;5038462;28;20033;-66
2021/09/26 08:09:03;;;;;;;15.40;13.90;;;17.60;99.90;;;;;;5022139;28;20041;-66
2021/09/26 08:11:29;;;;;;;15.00;13.45;;;17.70;99.90;;;;;;5039654;28;20045;-66
2021/09/26 08:13:55;;;;;;;16.88;12.85;;;17.70;99.90;;;;;;5035885;28;20498;-67
2021/09/26 08:16:21;;;;;;;15.90;12.95;;;17.80;99.90;;;;;;5021738;28;20052;-67
2021/09/26 08:18:46;;;;;;;14.52;13.05;;;17.90;99.90;;;;;;5021963;28;20048;-67
2021/09/26 08:21:12;;;;;;;13.57;12.23;;;17.90;99.90;;;;;;5023323;28;20041;-66
2021/09/26 08:23:38;;;;;;;14.48;12.45;;;18.00;99.90;;;;;;5019820;28;20041;-66
2021/09/26 08:26:04;;;;;;;14.52;13.00;;;18.10;99.90;;;;;;5037333;28;20037;-66
2021/09/26 08:28:30;;;;;;;13.75;12.40;;;18.10;99.90;;;;;;5021829;28;20033;-66
2021/09/26 08:30:55;;;;;;;13.75;11.85;;;18.10;99.90;;;;;;5023054;28;20044;-66
2021/09/26 08:33:21;;;;;;;14.40;12.82;;;18.10;99.90;;;;;;5036452;28;20116;-66
2021/09/26 08:35:47;;;;;;;14.68;13.18;;;18.10;99.90;;;;;;5040712;28;20072;-67
2021/09/26 08:38:12;;;;;;;15.85;12.75;;;18.20;99.90;;;;;;5022757;28;20071;-67
2021/09/26 08:40:38;;;;;;;15.13;13.15;;;18.10;99.90;;;;;;5039594;28;20064;-67
2021/09/26 08:43:04;;;;;;;16.70;13.18;;;18.10;99.90;;;;;;5035180;28;20049;-66
2021/09/26 08:45:36;;;;;;;14.27;12.82;;;18.00;99.90;;;;;;5038043;28;20079;-67
2021/09/26 08:48:02;;;;;;;14.75;13.25;;;18.00;99.90;;;;;;5039867;28;20513;-67
2021/09/26 08:50:29;;;;;;;16.52;13.52;;;18.00;99.90;;;;;;5036657;28;20041;-66
2021/09/26 08:52:55;;;;;;;14.50;12.80;;;17.90;99.90;;;;;;5034590;28;20068;-67
2021/09/26 08:55:21;;;;;;;14.38;12.70;;;17.90;99.90;;;;;;5020407;28;20040;-67
2021/09/26 08:57:46;;;;;;;14.88;12.82;;;17.90;99.90;;;;;;5038940;28;20426;-67
2021/09/26 09:00:15;;;;;;;13.77;12.43;;;17.80;99.90;;;;;;5021198;28;20044;-67
2021/09/26 09:02:41;;;;;;;15.50;13.95;;;17.80;99.90;;;;;;5019758;28;20049;-66
2021/09/26 09:05:29;;;;;;;13.88;12.48;;;17.80;99.90;;;;;;5025683;28;20040;-67
2021/09/26 09:08:13;;;;;;;15.15;12.60;;;17.80;99.90;;;;;;5043143;28;20033;-66
2021/09/26 09:10:39;;;;;;;14.32;12.95;;;17.70;99.90;;;;;;5040627;28;20037;-67
2021/09/26 09:13:06;;;;;;;15.63;13.40;;;17.70;99.90;;;;;;5038366;28;20532;-67
2021/09/26 09:15:32;;;;;;;20.15;13.35;;;17.70;99.90;;;;;;5041115;28;20053;-66
2021/09/26 09:18:04;;;;;;;17.45;12.80;;;17.70;99.90;;;;;;5040695;28;20028;-66
2021/09/26 09:20:34;;;;;;;15.00;13.48;;;17.60;99.90;;;;;;5022179;28;21588;-67
2021/09/26 09:23:11;;;;;;;14.00;12.48;;;17.60;99.90;;;;;;5022663;28;20052;-67
2021/09/26 09:25:41;;;;;;;14.05;12.65;;;17.60;99.90;;;;;;5038024;28;20079;-66
2021/09/26 09:28:21;;;;;;;15.48;13.05;;;17.60;99.90;;;;;;5026519;28;20037;-67
2021/09/26 09:30:49;;;;;;;14.48;12.70;;;17.70;99.90;;;;;;5024152;28;20045;-66
2021/09/26 09:33:16;;;;;;;15.20;13.15;;;17.70;99.90;;;;;;5040572;28;20410;-66
2021/09/26 09:35:46;;;;;;;13.35;11.98;;;17.80;99.90;;;;;;5007321;28;20661;-66
2021/09/26 09:38:33;;;;;;;14.68;13.23;;;17.90;99.90;;;;;;5025525;28;20056;-66
2021/09/26 09:40:59;;;;;;;14.45;13.05;;;17.90;99.90;;;;;;5039743;28;20095;-66
2021/09/26 09:43:29;;;;;;;14.90;13.25;;;18.00;99.90;;;;;;5004838;28;20033;-66
2021/09/26 09:46:01;;;;;;;13.95;12.55;;;18.10;99.90;;;;;;5016349;28;20045;-66
2021/09/26 09:48:30;;;;;;;14.52;12.32;;;18.40;99.90;;;;;;5035084;28;20045;-66
2021/09/26 09:51:01;;;;;;;14.48;12.10;;;18.50;99.90;;;;;;5020774;28;20053;-67
2021/09/26 09:53:37;;;;;;;13.38;12.18;;;18.70;99.90;;;;;;5017489;28;20084;-66
2021/09/26 09:56:03;;;;;;;13.38;12.00;;;19.10;99.90;;;;;;5035945;28;20033;-67
2021/09/26 09:58:34;;;;;;;14.05;12.07;;;19.30;99.90;;;;;;5018178;28;20048;-66
2021/09/26 10:01:01;;;;;;;15.45;11.38;;;19.50;99.90;;;;;;5018894;28;20579;-67
2021/09/26 10:03:37;;;;;;;14.35;12.07;;;19.70;99.90;;;;;;5018611;28;20052;-67
2021/09/26 10:06:20;;;;;;;13.02;11.82;;;19.90;99.90;;;;;;5022740;28;20475;-67
2021/09/26 10:08:46;;;;;;;17.67;11.50;;;20.10;99.90;;;;;;5038731;28;20428;-66
2021/09/26 10:11:11;;;;;;;13.45;11.50;;;20.30;99.90;;;;;;5023964;28;20262;-66
2021/09/26 10:13:37;;;;;;;15.43;12.02;;;20.40;99.90;;;;;;5038162;28;20049;-66
2021/09/26 10:16:08;;;;;;;12.57;11.07;;;20.50;99.90;;;;;;5031024;28;20040;-67
2021/09/26 10:18:35;;;;;;;16.25;12.30;;;20.60;99.90;;;;;;5023117;28;20060;-67
2021/09/26 10:21:03;;;;;;;11.30;10.20;;;20.70;99.90;;;;;;5043199;28;20037;-68
2021/09/26 10:23:29;;;;;;;15.05;11.60;;;20.60;99.90;;;;;;5042152;28;20037;-68
2021/09/26 10:25:56;;;;;;;12.82;11.48;;;20.60;99.90;;;;;;5024721;28;20060;-68
2021/09/26 10:28:28;;;;;;;12.05;9.45;;;20.60;99.90;;;;;;5006576;28;20044;-68
2021/09/26 10:31:03;;;;;;;13.07;11.55;;;20.60;99.90;;;;;;5021467;28;20056;-68
2021/09/26 10:33:30;;;;;;;13.88;12.48;;;20.70;99.90;;;;;;5039740;28;20376;-66
2021/09/26 10:35:57;;;;;;;14.40;11.60;;;20.90;99.90;;;;;;5014048;28;20048;-67
2021/09/26 10:38:24;;;;;;;14.30;12.20;;;21.20;99.90;;;;;;5027680;28;20127;-66
2021/09/26 10:40:51;;;;;;;13.10;11.82;;;21.30;99.90;;;;;;5044986;28;20422;-66
2021/09/26 10:43:21;;;;;;;14.07;12.52;;;21.30;99.90;;;;;;5016745;28;20053;-66
2021/09/26 10:45:48;;;;;;;13.43;11.57;;;21.30;99.90;;;;;;5016961;28;21996;-67
2021/09/26 10:48:14;;;;;;;13.27;11.38;;;21.30;99.90;;;;;;5024541;28;20037;-67
2021/09/26 10:50:41;;;;;;;13.48;11.70;;;21.20;99.90;;;;;;5037362;28;20045;-67
2021/09/26 10:53:12;;;;;;;13.75;12.15;;;21.10;99.90;;;;;;5023722;28;20053;-67
2021/09/26 10:55:40;;;;;;;13.02;11.70;;;21.10;99.90;;;;;;5039406;28;20041;-67
2021/09/26 10:58:06;;;;;;;13.40;12.10;;;21.00;99.90;;;;;;5029377;28;20079;-67
2021/09/26 11:00:49;;;;;;;12.77;11.65;;;21.00;99.90;;;;;;5027397;28;20152;-67
2021/09/26 11:03:19;;;;;;;13.65;12.25;;;21.00;99.90;;;;;;5039641;28;20364;-67
2021/09/26 11:05:50;;;;;;;14.32;12.27;;;20.80;99.90;;;;;;5042561;28;20036;-67
2021/09/26 11:08:36;;;;;;;16.10;11.77;;;20.80;99.90;;;;;;5026890;28;20486;-67
2021/09/26 11:11:04;;;;;;;17.83;11.73;;;20.90;99.90;;;;;;5012519;28;20132;-67
2021/09/26 11:13:38;;;;;;;13.02;11.70;;;20.80;99.90;;;;;;5026187;28;20056;-67
2021/09/26 11:16:18;;;;;;;13.32;11.95;;;20.90;99.90;;;;;;5024759;28;20832;-66
2021/09/26 11:18:55;;;;;;;15.68;12.55;;;20.80;99.90;;;;;;5027195;28;20044;-66
2021/09/26 11:21:39;;;;;;;14.20;11.93;;;20.80;99.90;;;;;;5038792;28;20041;-67
2021/09/26 11:24:25;;;;;;;15.70;11.82;;;20.90;99.90;;;;;;5018847;28;20043;-67
2021/09/26 11:26:59;;;;;;;14.52;12.52;;;20.90;99.90;;;;;;5009561;28;20445;-66
2021/09/26 11:29:38;;;;;;;20.65;13.07;;;21.00;99.90;;;;;;5022829;28;20051;-67
2021/09/26 11:32:07;;;;;;;13.82;12.45;;;21.10;99.90;;;;;;5043635;28;20045;-68
2021/09/26 11:34:51;;;;;;;15.30;11.55;;;21.20;99.90;;;;;;5024723;28;20053;-68
2021/09/26 11:37:17;;;;;;;13.00;11.65;;;21.30;99.90;;;;;;5018254;28;20056;-68
2021/09/26 11:39:51;;;;;;;14.75;11.63;;;21.40;99.90;;;;;;5020640;28;20249;-68
2021/09/26 11:42:28;;;;;;;14.03;12.13;;;21.50;99.90;;;;;;5042230;28;20037;-68
2021/09/26 11:44:55;;;;;;;12.93;11.68;;;21.70;99.90;;;;;;5024947;28;20551;-68
2021/09/26 11:47:21;;;;;;;15.18;11.70;;;21.70;99.90;;;;;;5026345;28;20037;-68
2021/09/26 11:49:47;;;;;;;13.20;11.63;;;21.70;99.90;;;;;;5027203;28;20052;-68
2021/09/26 11:52:13;;;;;;;13.13;11.70;;;21.70;99.90;;;;;;5011082;28;20084;-68
2021/09/26 11:54:39;;;;;;;13.68;12.27;;;21.70;99.90;;;;;;5021738;28;20480;-68
2021/09/26 11:57:09;;;;;;;12.95;11.65;;;21.80;99.90;;;;;;5048551;28;20898;-67
2021/09/26 11:59:40;;;;;;;13.20;11.27;;;21.80;99.90;;;;;;5023245;28;20059;-68
2021/09/26 12:02:14;;;;;;;16.83;12.13;;;21.80;99.90;;;;;;5039203;28;20430;-68
2021/09/26 12:04:41;;;;;;;12.73;11.45;;;21.80;99.90;;;;;;5025122;28;20470;-68
2021/09/26 12:07:08;;;;;;;12.18;11.02;;;21.80;99.90;;;;;;5025574;28;20033;-68
2021/09/26 12:09:45;;;;;;;12.10;10.70;;;21.80;99.90;;;;;;5042950;28;20037;-68
2021/09/26 12:12:23;;;;;;;11.68;10.48;;;21.90;99.90;;;;;;5027689;28;20052;-68
2021/09/26 12:15:02;;;;;;;13.43;11.10;;;21.90;99.90;;;;;;5039682;28;20120;-67
2021/09/26 12:17:30;;;;;;;12.80;10.63;;;21.90;99.90;;;;;;5025406;28;20091;-67
2021/09/26 12:20:08;;;;;;;9.85;8.55;;;21.90;99.90;;;;;;5041956;28;20490;-67
2021/09/26 12:22:35;;;;;;;12.57;10.10;;;22.10;99.90;;;;;;5024646;28;20127;-67
2021/09/26 12:25:09;;;;;;;12.45;11.18;;;22.20;99.90;;;;;;5025492;28;20376;-68
2021/09/26 12:27:58;;;;;;;12.68;10.27;;;22.40;99.90;;;;;;5024703;28;20128;-67
2021/09/26 12:30:29;;;;;;;14.32;10.05;;;22.40;99.90;;;;;;5024284;28;20104;-68
2021/09/26 12:33:00;;;;;;;10.82;9.80;;;22.50;99.90;;;;;;5022130;28;20467;-68
2021/09/26 12:35:47;;;;;;;10.93;9.85;;;22.50;99.90;;;;;;5025964;28;20044;-68